الصفحة الرئيسية
METAR-TAF:

METAR-TAF

مطار :

مطار وارسو فريدريك شوبان

وارسو, بولندا

دائرة عرض: 52-10N, خط طول: 020-58E, ارتفاع: 106 متر

مراقبة الطقس الحالي

تاريخ ووقت الإصدار 16 دقيقة قبل الساعة 11:30UTC
ريح 10 عقدة من الجنوب الشرقي
درجة الحرارة 26°درجة مئوية
الرطوبة 45%
ضغط 1023 hPa
الرؤية 10 كم أو أكثر
الغيوم لا تقل 1500 م ولا وجود لمزنة ركامية السحاب الأسود

METAR: EPWA 271130Z 13010KT CAVOK 26/13 Q1023 NOSIG

زمن: 13:46 (11:46 UTC)

توقعات

تاريخ ووقت الإصدار 16 دقيقة قبل الساعة 11:30UTC
التوقعات صالحة من27 الساعة 12 UTC إلى 28 الساعة 12 UTC
ريح 14 عقدة من الشرق/الجنوب الشرقي
الرؤية 10 كم أو أكثر
الغيوم لا تقل 1500 م ولا وجود لمزنة ركامية السحاب الأسود
أصبح
من 27 الساعة 18 UTC إلى 27 الساعة 20 UTC
ريح 4 عقدة من الشرق

TAF: EPWA 271130Z 2712/2812 11014KT CAVOK BECMG 2718/2720 09004KT

أرصاد الطقس والتوقعات من أكثر من 4000 مطار (تقارير الطقس للمطار METAR والتنبؤ بالطقس بالمطارTAF).

المحطات المتاحة هي النقط الصفراء والحمراء على الخريطة.

حرك المؤشر فوق النقطة لمعرفة اسم المحطة.

ثم انقر لمعرفة أرصاد وتوقعات الطقس.

لتغيير الخارطة: اضغط على الأزرار الخضراء مع رمز الصليب الأسود للتكبير. على الزر الأخضر مع شرطة للتصغير، أو على الأسهم الخضراء للخرائط المجاورة.


METAR-TAF: